Time;durP1;ratioP1;P1;durP2;ratioP2;P2;SDS_P1;SDS_P2;PMS_P1;PMS_P2;Temp;Humidity;BMP_temperature;BMP_pressure;BME280_temperature;BME280_humidity;BME280_pressure;Samples;Min_cycle;Max_cycle;Signal;HPM_P1;HPM_P2
2021/05/28 00:02:24;;;;;;;31.65;21.98;;;;;;;;;;4415547;32;20487;-84
2021/05/28 00:04:56;;;;;;;25.65;22.33;;;;;;;;;;4427146;32;20485;-85
2021/05/28 00:07:26;;;;;;;30.58;21.92;;;;;;;;;;4430398;32;20296;-85
2021/05/28 00:09:58;;;;;;;28.77;22.10;;;;;;;;;;4434685;32;20129;-85
2021/05/28 00:12:30;;;;;;;28.25;21.67;;;;;;;;;;4428945;32;20481;-85
2021/05/28 00:15:01;;;;;;;30.20;24.33;;;;;;;;;;4425217;32;20156;-85
2021/05/28 00:17:32;;;;;;;30.70;25.00;;;;;;;;;;4428922;32;20113;-85
2021/05/28 00:20:04;;;;;;;29.90;24.58;;;;;;;;;;4422831;32;21042;-85
2021/05/28 00:22:35;;;;;;;29.90;24.90;;;;;;;;;;4428007;32;20239;-85
2021/05/28 00:25:07;;;;;;;23.83;21.27;;;;;;;;;;4439769;32;20053;-85
2021/05/28 00:27:38;;;;;;;26.98;21.67;;;;;;;;;;4434980;32;20102;-85
2021/05/28 00:30:20;;;;;;;27.20;24.12;;;;;;;;;;4425440;32;20222;-84
2021/05/28 00:32:52;;;;;;;25.40;21.27;;;;;;;;;;4422581;32;20376;-85
2021/05/28 00:35:23;;;;;;;25.60;23.00;;;;;;;;;;4436431;32;20127;-85
2021/05/28 00:37:54;;;;;;;26.42;23.50;;;;;;;;;;4425155;32;20050;-85
2021/05/28 00:40:25;;;;;;;27.17;24.27;;;;;;;;;;4420965;32;20097;-84
2021/05/28 00:42:56;;;;;;;29.63;23.95;;;;;;;;;;4432186;32;20122;-85
2021/05/28 00:45:27;;;;;;;28.20;23.35;;;;;;;;;;4427311;32;20181;-85
2021/05/28 00:47:58;;;;;;;25.37;20.83;;;;;;;;;;4434823;32;20377;-85
2021/05/28 00:50:30;;;;;;;28.25;21.67;;;;;;;;;;4436571;32;20457;-84
2021/05/28 00:53:00;;;;;;;23.02;20.75;;;;;;;;;;4419033;32;20131;-85
2021/05/28 00:55:31;;;;;;;27.52;21.05;;;;;;;;;;4422217;32;20125;-85
2021/05/28 00:58:03;;;;;;;23.77;20.92;;;;;;;;;;4429370;32;20089;-85
2021/05/28 01:00:35;;;;;;;28.87;24.87;;;;;;;;;;4428215;32;20529;-85
2021/05/28 01:03:06;;;;;;;28.02;25.23;;;;;;;;;;4429492;32;20121;-84
2021/05/28 01:05:37;;;;;;;30.75;25.08;;;;;;;;;;4431266;32;20103;-85
2021/05/28 01:08:08;;;;;;;29.80;24.80;;;;;;;;;;4433570;32;20049;-85
2021/05/28 01:10:40;;;;;;;28.38;25.45;;;;;;;;;;4430946;32;20113;-85
2021/05/28 01:13:11;;;;;;;28.48;25.33;;;;;;;;;;4433904;32;20093;-85
2021/05/28 01:15:43;;;;;;;23.87;19.45;;;;;;;;;;4430626;32;20431;-85
2021/05/28 01:18:14;;;;;;;23.52;19.98;;;;;;;;;;4430135;32;20140;-86
2021/05/28 01:20:45;;;;;;;22.62;20.35;;;;;;;;;;4430180;32;20050;-85
2021/05/28 01:23:16;;;;;;;29.58;22.95;;;;;;;;;;4427833;32;20121;-85
2021/05/28 01:25:48;;;;;;;24.80;22.42;;;;;;;;;;4431712;32;20154;-85
2021/05/28 01:28:18;;;;;;;22.73;20.42;;;;;;;;;;4430536;32;20061;-85
2021/05/28 01:30:50;;;;;;;24.50;20.30;;;;;;;;;;4430994;32;20057;-86
2021/05/28 01:33:20;;;;;;;23.77;20.15;;;;;;;;;;4432402;32;20399;-85
2021/05/28 01:35:52;;;;;;;23.12;20.25;;;;;;;;;;4433536;32;20101;-85
2021/05/28 01:38:24;;;;;;;28.20;21.33;;;;;;;;;;4434632;32;20127;-85
2021/05/28 01:40:55;;;;;;;23.85;19.92;;;;;;;;;;4430519;32;20054;-84
2021/05/28 01:43:25;;;;;;;23.92;19.95;;;;;;;;;;4426532;32;20069;-84
2021/05/28 01:45:58;;;;;;;21.90;19.70;;;;;;;;;;4437585;32;20159;-84
2021/05/28 01:48:29;;;;;;;26.67;19.62;;;;;;;;;;4429132;32;20104;-85
2021/05/28 01:51:00;;;;;;;24.65;19.90;;;;;;;;;;4431878;32;20443;-85
2021/05/28 01:53:30;;;;;;;23.85;19.17;;;;;;;;;;4432640;32;20075;-85
2021/05/28 01:56:02;;;;;;;21.85;18.95;;;;;;;;;;4431099;32;20119;-85
2021/05/28 01:58:33;;;;;;;22.77;19.85;;;;;;;;;;4415505;32;20176;-85
2021/05/28 02:01:04;;;;;;;24.63;19.10;;;;;;;;;;4418112;32;20093;-85
2021/05/28 02:03:35;;;;;;;24.40;21.87;;;;;;;;;;4424714;32;20127;-85
2021/05/28 02:06:06;;;;;;;21.45;19.15;;;;;;;;;;4427672;32;20119;-85
2021/05/28 02:08:38;;;;;;;22.85;20.08;;;;;;;;;;4427313;32;20108;-85
2021/05/28 02:11:08;;;;;;;25.33;20.77;;;;;;;;;;4428491;32;20375;-85
2021/05/28 02:13:39;;;;;;;22.73;20.20;;;;;;;;;;4430190;32;20456;-85
2021/05/28 02:16:10;;;;;;;20.83;18.62;;;;;;;;;;4433696;32;20158;-84
2021/05/28 02:18:41;;;;;;;28.67;19.50;;;;;;;;;;4425376;32;20068;-85
2021/05/28 02:21:12;;;;;;;22.55;18.37;;;;;;;;;;4431590;32;20465;-85
2021/05/28 02:23:43;;;;;;;24.77;18.65;;;;;;;;;;4428751;32;20132;-84
2021/05/28 02:26:14;;;;;;;22.50;18.65;;;;;;;;;;4433792;32;20093;-84
2021/05/28 02:28:45;;;;;;;25.33;20.95;;;;;;;;;;4431174;32;20085;-85
2021/05/28 02:31:16;;;;;;;28.73;21.10;;;;;;;;;;4432249;32;20173;-85
2021/05/28 02:33:48;;;;;;;29.83;21.08;;;;;;;;;;4436459;32;20050;-85
2021/05/28 02:36:18;;;;;;;33.03;19.65;;;;;;;;;;4424409;32;20118;-85
2021/05/28 02:38:49;;;;;;;26.73;22.05;;;;;;;;;;4427205;32;20384;-85
2021/05/28 02:41:20;;;;;;;23.05;20.25;;;;;;;;;;4425625;32;20148;-85
2021/05/28 02:43:52;;;;;;;22.80;20.60;;;;;;;;;;4432353;32;20169;-85
2021/05/28 02:46:23;;;;;;;24.00;20.90;;;;;;;;;;4430568;32;20101;-85
2021/05/28 02:48:54;;;;;;;25.67;20.83;;;;;;;;;;4428203;32;20106;-85
2021/05/28 02:51:25;;;;;;;25.65;18.55;;;;;;;;;;4420523;32;20061;-85
2021/05/28 02:53:56;;;;;;;20.27;17.87;;;;;;;;;;4429118;32;20123;-84
2021/05/28 02:56:26;;;;;;;20.45;18.12;;;;;;;;;;4430232;32;20080;-85
2021/05/28 02:58:57;;;;;;;24.23;21.73;;;;;;;;;;4428393;32;20133;-85
2021/05/28 03:01:28;;;;;;;25.30;21.37;;;;;;;;;;4436706;32;20101;-85
2021/05/28 03:03:59;;;;;;;25.73;23.20;;;;;;;;;;4435254;32;20061;-85
2021/05/28 03:06:30;;;;;;;24.90;22.33;;;;;;;;;;4423631;32;20054;-85
2021/05/28 03:09:02;;;;;;;24.77;22.35;;;;;;;;;;4426604;32;20455;-85
2021/05/28 03:11:43;;;;;;;;;;;;;;;;;;;;;
2021/05/28 03:14:21;;;;;;;23.30;20.35;;;;;;;;;;4393369;32;20390;-93
2021/05/28 03:16:57;;;;;;;24.00;20.35;;;;;;;;;;4385828;32;20128;-94
2021/05/28 03:19:51;;;;;;;19.42;17.52;;;;;;;;;;4378535;32;20073;-96
2021/05/28 03:22:31;;;;;;;23.87;17.87;;;;;;;;;;4381996;32;20120;-93
2021/05/28 03:25:21;;;;;;;;;;;;;;;;;;4389335;32;20120;-93
2021/05/28 03:27:56;;;;;;;23.90;21.35;;;;;;;;;;4386093;32;19941;-94
2021/05/28 03:30:49;;;;;;;23.45;19.80;;;;;;;;;;4387652;32;20105;-95
2021/05/28 03:33:23;;;;;;;23.10;17.65;;;;;;;;;;4388064;32;20109;-96
2021/05/28 03:36:18;;;;;;;19.23;17.20;;;;;;;;;;4388323;32;20093;-96
2021/05/28 03:39:04;;;;;;;28.50;18.02;;;;;;;;;;4383012;32;20117;-96
2021/05/28 03:41:49;;;;;;;22.75;17.83;;;;;;;;;;4390973;32;20621;-95
2021/05/28 03:44:32;;;;;;;19.60;17.62;;;;;;;;;;4388225;32;20097;-95
2021/05/28 03:47:20;;;;;;;;;;;;;;;;;;;;;
2021/05/28 03:49:52;;;;;;;22.00;17.60;;;;;;;;;;4386149;32;20055;-96
2021/05/28 03:52:25;;;;;;;21.10;17.65;;;;;;;;;;4387892;32;20066;-96
2021/05/28 03:55:01;;;;;;;20.37;17.55;;;;;;;;;;4367344;32;20050;-96
2021/05/28 03:57:33;;;;;;;20.73;18.67;;;;;;;;;;4374798;32;20148;-96
2021/05/28 04:00:08;;;;;;;23.38;21.20;;;;;;;;;;4372145;32;20046;-96
2021/05/28 04:02:45;;;;;;;18.12;16.20;;;;;;;;;;4373967;32;20725;-95
2021/05/28 04:05:22;;;;;;;17.90;15.82;;;;;;;;;;4369625;32;20110;-96
2021/05/28 04:07:59;;;;;;;23.38;19.48;;;;;;;;;;4383816;32;20432;-96
2021/05/28 04:10:38;;;;;;;22.65;18.85;;;;;;;;;;4373130;32;20121;-96
2021/05/28 04:13:17;;;;;;;20.83;18.85;;;;;;;;;;4374330;32;20047;-96
2021/05/28 04:16:00;;;;;;;26.05;17.37;;;;;;;;;;4376450;32;20054;-96
2021/05/28 04:18:40;;;;;;;20.77;17.87;;;;;;;;;;4373497;32;20094;-96
2021/05/28 04:21:13;;;;;;;18.75;16.77;;;;;;;;;;4374379;32;20127;-96
2021/05/28 04:24:13;;;;;;;20.42;17.10;;;;;;;;;;4377785;32;20475;-96
2021/05/28 04:27:28;;;;;;;19.33;17.27;;;;;;;;;;4377304;32;20155;-96
2021/05/28 04:30:11;;;;;;;20.02;16.87;;;;;;;;;;4383729;32;20122;-96
2021/05/28 04:36:17;;;;;;;22.15;18.83;;;;;;;;;;4387429;32;20114;-96
2021/05/28 04:39:02;;;;;;;22.05;19.00;;;;;;;;;;4374217;32;20043;-96
2021/05/28 04:41:45;;;;;;;18.70;16.60;;;;;;;;;;4367041;32;20051;-95
2021/05/28 04:44:19;;;;;;;25.75;19.62;;;;;;;;;;4374582;32;20145;-96
2021/05/28 04:46:56;;;;;;;21.40;18.75;;;;;;;;;;4375608;32;20124;-96
2021/05/28 04:49:57;;;;;;;20.73;18.58;;;;;;;;;;4375960;32;20265;-96
2021/05/28 04:52:46;;;;;;;20.85;18.90;;;;;;;;;;4376633;32;20043;-96
2021/05/28 04:55:37;;;;;;;22.13;17.33;;;;;;;;;;4369918;32;20055;-95
2021/05/28 04:58:18;;;;;;;21.10;18.73;;;;;;;;;;4380922;32;20172;-95
2021/05/28 05:00:55;;;;;;;21.83;18.87;;;;;;;;;;4372234;32;20118;-94
2021/05/28 05:03:50;;;;;;;20.08;18.08;;;;;;;;;;4373611;32;20051;-96
2021/05/28 05:06:21;;;;;;;21.67;19.52;;;;;;;;;;4372317;32;20110;-95
2021/05/28 05:09:03;;;;;;;25.35;19.70;;;;;;;;;;4371038;32;20055;-96
2021/05/28 05:15:27;;;;;;;24.30;21.62;;;;;;;;;;4394734;32;20103;-96
2021/05/28 06:27:32;;;;;;;18.95;16.80;;;;;;;;;;4474588;27;20445;-85
2021/05/28 06:30:11;;;;;;;18.50;15.60;;;;;;;;;;4321546;33;20134;-85
2021/05/28 06:32:42;;;;;;;19.45;16.05;;;;;;;;;;4329576;33;20064;-85
2021/05/28 06:35:14;;;;;;;18.25;16.40;;;;;;;;;;4336853;33;20074;-85
2021/05/28 06:37:44;;;;;;;21.62;16.95;;;;;;;;;;4325263;33;20103;-85
2021/05/28 06:40:15;;;;;;;20.27;16.17;;;;;;;;;;4327180;33;20075;-85
2021/05/28 06:46:11;;;;;;;17.73;15.85;;;;;;;;;;4334015;33;20090;-84
2021/05/28 06:48:48;;;;;;;19.55;15.73;;;;;;;;;;4335762;33;20064;-83
2021/05/28 06:51:19;;;;;;;17.33;15.60;;;;;;;;;;4332499;33;20386;-84
2021/05/28 06:53:50;;;;;;;22.40;15.63;;;;;;;;;;4333635;33;20353;-84
2021/05/28 06:56:20;;;;;;;22.00;16.37;;;;;;;;;;4325718;33;20130;-83
2021/05/28 06:58:52;;;;;;;18.50;16.55;;;;;;;;;;4338171;33;20163;-84
2021/05/28 07:01:22;;;;;;;19.05;16.10;;;;;;;;;;4338449;33;20056;-84
2021/05/28 07:03:53;;;;;;;23.17;16.10;;;;;;;;;;4339024;33;20091;-84
2021/05/28 07:06:24;;;;;;;18.02;16.15;;;;;;;;;;4334218;33;20114;-83
2021/05/28 07:08:56;;;;;;;20.70;16.20;;;;;;;;;;4335322;33;20135;-83
2021/05/28 07:11:26;;;;;;;18.35;16.45;;;;;;;;;;4331301;33;20052;-84
2021/05/28 07:13:58;;;;;;;17.73;15.98;;;;;;;;;;4335246;33;20654;-85
2021/05/28 07:16:29;;;;;;;18.48;16.45;;;;;;;;;;4336274;33;20064;-83
2021/05/28 07:19:00;;;;;;;31.85;23.20;;;;;;;;;;4334113;33;20478;-84
2021/05/28 07:21:31;;;;;;;20.50;16.42;;;;;;;;;;4335199;33;20095;-84
2021/05/28 07:24:02;;;;;;;19.70;16.60;;;;;;;;;;4336920;33;20060;-84
2021/05/28 07:26:33;;;;;;;18.40;16.77;;;;;;;;;;4335897;33;20118;-84
2021/05/28 07:29:05;;;;;;;19.67;17.67;;;;;;;;;;4333598;33;20060;-84
2021/05/28 07:31:35;;;;;;;18.55;16.87;;;;;;;;;;4336271;33;20078;-85
2021/05/28 07:34:07;;;;;;;18.42;16.60;;;;;;;;;;4309255;33;20143;-84
2021/05/28 07:36:38;;;;;;;18.92;16.70;;;;;;;;;;4333801;33;20209;-84
2021/05/28 07:39:10;;;;;;;18.10;16.33;;;;;;;;;;4336734;33;20090;-84
2021/05/28 07:41:40;;;;;;;19.17;15.90;;;;;;;;;;4319507;33;20045;-85
2021/05/28 07:44:11;;;;;;;18.62;16.83;;;;;;;;;;4330746;33;20084;-83
2021/05/28 07:46:45;;;;;;;19.00;17.15;;;;;;;;;;4336340;33;20070;-84
2021/05/28 07:49:17;;;;;;;19.08;17.12;;;;;;;;;;4344506;33;20148;-83
2021/05/28 07:51:48;;;;;;;19.48;17.67;;;;;;;;;;4328333;33;20185;-84
2021/05/28 07:54:19;;;;;;;26.17;20.05;;;;;;;;;;4335233;32;20457;-84
2021/05/28 07:56:50;;;;;;;30.35;20.80;;;;;;;;;;4334022;33;20518;-84
2021/05/28 07:59:20;;;;;;;19.12;17.42;;;;;;;;;;4338843;33;20071;-85
2021/05/28 08:01:51;;;;;;;18.70;17.08;;;;;;;;;;4336464;33;20450;-84
2021/05/28 08:04:22;;;;;;;22.48;20.10;;;;;;;;;;4335914;33;20146;-84
2021/05/28 08:06:53;;;;;;;33.78;24.92;;;;;;;;;;4339710;33;20056;-84
2021/05/28 08:09:23;;;;;;;32.78;19.45;;;;;;;;;;4341754;33;20063;-85
2021/05/28 08:11:55;;;;;;;24.45;19.95;;;;;;;;;;4330318;33;20075;-84
2021/05/28 08:14:26;;;;;;;20.88;17.90;;;;;;;;;;4342830;33;20060;-84
2021/05/28 08:16:57;;;;;;;16.48;14.93;;;;;;;;;;4331846;33;20553;-84
2021/05/28 08:19:27;;;;;;;14.07;12.90;;;;;;;;;;4330624;33;20083;-84
2021/05/28 08:22:07;;;;;;;11.85;7.43;;;;;;;;;;4323687;33;20091;-83
2021/05/28 08:24:38;;;;;;;7.70;1.80;;;;;;;;;;4320670;33;20149;-84
2021/05/28 08:27:08;;;;;;;6.18;2.10;;;;;;;;;;4318669;33;20146;-84
2021/05/28 08:29:40;;;;;;;8.63;2.35;;;;;;;;;;4330539;32;20052;-83
2021/05/28 08:32:12;;;;;;;8.43;1.90;;;;;;;;;;4330957;33;20061;-84
2021/05/28 08:34:43;;;;;;;5.37;1.90;;;;;;;;;;4337454;33;20096;-84
2021/05/28 08:37:13;;;;;;;9.60;2.22;;;;;;;;;;4322524;33;20088;-83
2021/05/28 08:39:45;;;;;;;6.97;1.95;;;;;;;;;;4326972;33;20078;-83
2021/05/28 08:42:20;;;;;;;7.72;2.12;;;;;;;;;;4327789;33;20048;-84
2021/05/28 08:44:52;;;;;;;11.70;2.30;;;;;;;;;;4328937;33;20431;-84
2021/05/28 08:47:23;;;;;;;6.65;1.83;;;;;;;;;;4324745;33;20413;-84
2021/05/28 08:49:56;;;;;;;9.35;2.20;;;;;;;;;;4329693;33;20093;-83
2021/05/28 08:52:28;;;;;;;8.32;2.17;;;;;;;;;;4335635;33;20080;-84
2021/05/28 08:54:59;;;;;;;8.48;2.00;;;;;;;;;;4332549;33;20527;-84
2021/05/28 08:57:30;;;;;;;8.98;2.30;;;;;;;;;;4330240;33;20126;-84
2021/05/28 09:00:02;;;;;;;9.80;3.17;;;;;;;;;;4329081;33;20177;-84
2021/05/28 09:02:37;;;;;;;7.15;2.50;;;;;;;;;;4321996;33;20068;-84
2021/05/28 09:05:31;;;;;;;10.82;2.67;;;;;;;;;;4333208;33;20085;-84
2021/05/28 09:08:02;;;;;;;9.88;2.85;;;;;;;;;;4331073;33;20394;-84
2021/05/28 09:10:35;;;;;;;9.00;3.15;;;;;;;;;;4343863;33;20056;-83
2021/05/28 09:13:07;;;;;;;10.27;3.22;;;;;;;;;;4331829;33;20117;-84
2021/05/28 09:15:38;;;;;;;8.93;2.10;;;;;;;;;;4331904;33;20147;-84
2021/05/28 09:18:10;;;;;;;7.32;2.40;;;;;;;;;;4331721;33;20428;-83
2021/05/28 09:20:45;;;;;;;9.88;2.85;;;;;;;;;;4329452;33;20064;-83
2021/05/28 09:23:18;;;;;;;10.25;2.20;;;;;;;;;;4325942;33;20612;-84
2021/05/28 09:26:02;;;;;;;7.50;2.00;;;;;;;;;;4330542;33;20205;-84
2021/05/28 09:28:39;;;;;;;9.88;2.78;;;;;;;;;;4335511;33;20123;-84
2021/05/28 09:31:13;;;;;;;9.93;2.15;;;;;;;;;;4336252;33;20119;-84
2021/05/28 09:33:46;;;;;;;16.65;2.80;;;;;;;;;;4326924;33;20110;-84
2021/05/28 09:36:24;;;;;;;6.80;2.20;;;;;;;;;;4321131;33;20139;-84
2021/05/28 09:39:08;;;;;;;12.68;2.12;;;;;;;;;;4318589;33;20137;-84
2021/05/28 09:41:43;;;;;;;9.07;2.03;;;;;;;;;;4327545;33;20060;-84
2021/05/28 09:44:14;;;;;;;;;;;;;;;;;;4328669;33;20110;-84
2021/05/28 09:46:57;;;;;;;8.45;1.98;;;;;;;;;;4320467;33;20094;-84
2021/05/28 09:49:54;;;;;;;8.68;1.98;;;;;;;;;;4314100;33;20167;-83
2021/05/28 09:52:29;;;;;;;6.97;2.12;;;;;;;;;;4315329;33;20119;-84
2021/05/28 09:55:08;;;;;;;8.35;2.28;;;;;;;;;;4325270;33;20056;-84
2021/05/28 09:57:39;;;;;;;7.12;2.03;;;;;;;;;;4329702;33;20064;-84
2021/05/28 10:00:22;;;;;;;5.68;1.75;;;;;;;;;;4324191;32;20582;-84
2021/05/28 10:03:11;;;;;;;8.52;2.50;;;;;;;;;;4326270;33;20115;-85
2021/05/28 10:05:45;;;;;;;8.27;2.03;;;;;;;;;;4325909;33;20492;-84
2021/05/28 10:08:16;;;;;;;7.45;2.08;;;;;;;;;;4322840;33;20111;-84
2021/05/28 10:10:48;;;;;;;14.45;2.90;;;;;;;;;;4320420;33;20576;-84
2021/05/28 10:13:20;;;;;;;8.40;1.98;;;;;;;;;;4330538;33;20462;-85
2021/05/28 10:15:52;;;;;;;7.47;2.12;;;;;;;;;;4324023;33;20149;-85
2021/05/28 10:18:23;;;;;;;7.75;1.70;;;;;;;;;;4325061;33;20106;-84
2021/05/28 10:20:55;;;;;;;11.12;2.05;;;;;;;;;;4324653;33;20122;-84
2021/05/28 10:23:26;;;;;;;10.18;2.10;;;;;;;;;;4322047;33;20060;-85
2021/05/28 10:25:58;;;;;;;4.93;2.05;;;;;;;;;;4318917;33;20056;-85
2021/05/28 10:28:41;;;;;;;6.22;2.00;;;;;;;;;;4323660;33;20262;-84
2021/05/28 10:31:13;;;;;;;7.60;1.60;;;;;;;;;;4330131;33;20165;-84
2021/05/28 10:33:49;;;;;;;6.37;1.90;;;;;;;;;;4325362;33;20140;-85
2021/05/28 10:36:38;;;;;;;7.55;1.95;;;;;;;;;;4320919;33;20190;-84
2021/05/28 10:39:10;;;;;;;9.80;2.12;;;;;;;;;;4326914;33;20052;-85
2021/05/28 10:41:45;;;;;;;10.80;2.20;;;;;;;;;;4329043;33;20468;-85
2021/05/28 10:44:19;;;;;;;8.45;1.80;;;;;;;;;;4321136;33;20131;-85
2021/05/28 10:47:10;;;;;;;5.78;1.80;;;;;;;;;;4325997;33;20055;-86
2021/05/28 10:49:43;;;;;;;6.78;2.05;;;;;;;;;;4332858;33;20498;-86
2021/05/28 10:52:14;;;;;;;8.98;2.12;;;;;;;;;;4337414;33;20170;-84
2021/05/28 10:54:52;;;;;;;10.20;2.50;;;;;;;;;;4324992;33;20186;-85
2021/05/28 10:57:30;;;;;;;6.60;1.80;;;;;;;;;;4325362;33;20441;-84
2021/05/28 11:00:11;;;;;;;25.52;2.85;;;;;;;;;;4334968;33;20059;-84
2021/05/28 11:02:49;;;;;;;6.68;1.98;;;;;;;;;;4337001;33;20122;-85
2021/05/28 11:05:39;;;;;;;9.50;1.87;;;;;;;;;;4333800;33;20068;-84
2021/05/28 11:08:43;;;;;;;5.47;1.55;;;;;;;;;;4338243;33;20044;-84
2021/05/28 11:11:33;;;;;;;8.95;1.83;;;;;;;;;;4321646;33;20071;-84
2021/05/28 11:14:19;;;;;;;6.85;1.73;;;;;;;;;;4339824;33;20089;-85
2021/05/28 11:16:57;;;;;;;4.40;1.48;;;;;;;;;;4323431;33;20596;-85
2021/05/28 11:19:31;;;;;;;11.52;2.20;;;;;;;;;;4315514;33;20056;-84
2021/05/28 11:22:06;;;;;;;10.80;1.80;;;;;;;;;;4340203;33;20068;-85
2021/05/28 11:24:51;;;;;;;9.75;1.77;;;;;;;;;;4321865;33;20242;-84
2021/05/28 11:27:23;;;;;;;8.13;1.70;;;;;;;;;;4332344;33;20106;-85
2021/05/28 11:29:54;;;;;;;7.18;1.80;;;;;;;;;;4321767;33;20367;-85
2021/05/28 11:32:44;;;;;;;9.32;2.25;;;;;;;;;;4352019;33;20071;-84
2021/05/28 11:35:17;;;;;;;8.23;1.60;;;;;;;;;;4336669;33;20060;-85
2021/05/28 11:37:54;;;;;;;4.57;1.60;;;;;;;;;;4337605;33;20059;-85
2021/05/28 11:40:24;;;;;;;12.48;2.00;;;;;;;;;;4340683;33;20047;-85
2021/05/28 11:43:15;;;;;;;8.20;1.80;;;;;;;;;;4338446;33;20064;-85
2021/05/28 11:45:47;;;;;;;6.40;1.52;;;;;;;;;;4326008;33;20051;-85
2021/05/28 11:48:19;;;;;;;6.10;1.80;;;;;;;;;;4341960;33;20059;-85
2021/05/28 11:50:57;;;;;;;4.80;1.58;;;;;;;;;;4331606;33;20247;-85
2021/05/28 11:53:38;;;;;;;8.90;2.03;;;;;;;;;;4332486;33;20114;-84
2021/05/28 11:56:09;;;;;;;37.78;3.53;;;;;;;;;;4334295;33;20082;-84
2021/05/28 11:58:50;;;;;;;5.82;1.98;;;;;;;;;;4338514;33;20532;-85
2021/05/28 12:01:21;;;;;;;11.10;2.35;;;;;;;;;;4328293;33;20067;-85
2021/05/28 12:03:53;;;;;;;10.25;2.10;;;;;;;;;;4326477;33;20520;-86
2021/05/28 12:06:24;;;;;;;7.07;1.83;;;;;;;;;;4324969;33;20076;-85
2021/05/28 12:08:59;;;;;;;6.43;1.70;;;;;;;;;;4327602;33;20078;-85
2021/05/28 12:11:29;;;;;;;5.50;1.80;;;;;;;;;;4332714;33;20134;-85
2021/05/28 12:14:01;;;;;;;5.82;1.40;;;;;;;;;;4324539;33;20128;-85
2021/05/28 12:16:36;;;;;;;4.22;1.40;;;;;;;;;;4336284;33;20411;-85
2021/05/28 12:19:07;;;;;;;7.85;1.90;;;;;;;;;;4335711;33;20072;-85
2021/05/28 12:21:38;;;;;;;7.30;1.73;;;;;;;;;;4354339;33;20563;-85
2021/05/28 12:24:10;;;;;;;20.88;2.08;;;;;;;;;;4332265;32;20068;-85
2021/05/28 12:26:40;;;;;;;12.07;2.37;;;;;;;;;;4336377;33;20145;-85
2021/05/28 12:29:27;;;;;;;7.70;1.62;;;;;;;;;;4323199;33;20169;-85
2021/05/28 12:32:14;;;;;;;4.45;1.90;;;;;;;;;;4341421;33;20094;-85
2021/05/28 12:35:02;;;;;;;9.18;1.70;;;;;;;;;;4336619;33;20163;-85
2021/05/28 12:37:33;;;;;;;6.50;1.60;;;;;;;;;;4330957;33;20126;-86
2021/05/28 12:47:03;;;;;;;9.10;1.67;;;;;;;;;;4322899;33;20047;-85
2021/05/28 12:53:09;;;;;;;13.32;2.00;;;;;;;;;;4339333;33;20036;-85
2021/05/28 12:55:44;;;;;;;8.77;1.80;;;;;;;;;;4336213;33;20489;-85
2021/05/28 12:58:43;;;;;;;5.55;1.50;;;;;;;;;;4332573;33;20549;-83
2021/05/28 13:01:15;;;;;;;7.80;1.70;;;;;;;;;;4324150;33;20111;-85
2021/05/28 13:03:48;;;;;;;6.00;1.80;;;;;;;;;;4336244;33;20441;-86
2021/05/28 13:06:33;;;;;;;7.40;1.70;;;;;;;;;;4327017;33;20114;-84
2021/05/28 13:09:15;;;;;;;9.63;1.73;;;;;;;;;;4339196;33;20052;-84
2021/05/28 13:12:07;;;;;;;4.95;1.55;;;;;;;;;;4328507;33;20126;-84
2021/05/28 13:14:42;;;;;;;5.25;1.60;;;;;;;;;;4323155;33;20076;-85
2021/05/28 13:17:15;;;;;;;5.65;1.80;;;;;;;;;;4333550;33;20056;-85
2021/05/28 13:19:47;;;;;;;6.93;1.50;;;;;;;;;;4333575;33;20052;-85
2021/05/28 13:22:30;;;;;;;4.25;1.40;;;;;;;;;;4333496;32;20451;-86
2021/05/28 13:25:19;;;;;;;5.72;1.75;;;;;;;;;;4336549;33;20162;-84
2021/05/28 13:28:02;;;;;;;7.78;1.73;;;;;;;;;;4335458;33;20536;-85
2021/05/28 13:30:41;;;;;;;6.00;1.80;;;;;;;;;;4346189;33;20056;-85
2021/05/28 13:33:12;;;;;;;9.20;1.85;;;;;;;;;;4325342;33;20083;-86
2021/05/28 13:35:44;;;;;;;7.20;1.48;;;;;;;;;;4327004;33;20055;-86
2021/05/28 13:38:16;;;;;;;5.35;1.62;;;;;;;;;;4329946;33;20064;-86
2021/05/28 13:40:48;;;;;;;7.10;1.40;;;;;;;;;;4331646;33;20047;-86
2021/05/28 13:43:21;;;;;;;4.20;1.55;;;;;;;;;;4325527;33;20108;-85
2021/05/28 13:45:56;;;;;;;5.60;1.50;;;;;;;;;;4335369;33;20077;-84
2021/05/28 13:48:27;;;;;;;7.85;1.73;;;;;;;;;;4338206;32;20107;-85
2021/05/28 13:50:57;;;;;;;6.65;1.52;;;;;;;;;;4339545;32;20071;-85
2021/05/28 13:53:29;;;;;;;5.87;1.85;;;;;;;;;;4337458;33;20115;-85
2021/05/28 13:56:00;;;;;;;5.75;1.42;;;;;;;;;;4329391;33;20060;-86
2021/05/28 13:58:32;;;;;;;4.53;1.60;;;;;;;;;;4335480;33;20091;-85
2021/05/28 14:01:04;;;;;;;9.38;1.90;;;;;;;;;;4342112;32;20117;-85
2021/05/28 14:03:35;;;;;;;6.90;1.70;;;;;;;;;;4331234;33;20071;-85
2021/05/28 14:06:05;;;;;;;6.80;1.65;;;;;;;;;;4334984;33;20116;-85
2021/05/28 14:08:36;;;;;;;6.87;1.95;;;;;;;;;;4329320;33;20056;-85
2021/05/28 14:11:07;;;;;;;11.93;1.60;;;;;;;;;;4319956;33;20461;-85
2021/05/28 14:13:38;;;;;;;11.25;1.90;;;;;;;;;;4332421;33;20096;-85
2021/05/28 14:16:11;;;;;;;8.35;1.83;;;;;;;;;;4327493;33;20560;-86
2021/05/28 14:18:42;;;;;;;7.50;1.95;;;;;;;;;;4320635;33;20127;-85
2021/05/28 14:21:13;;;;;;;7.05;1.70;;;;;;;;;;4317794;33;20102;-85
2021/05/28 14:23:44;;;;;;;6.75;1.83;;;;;;;;;;4328217;33;20136;-84
2021/05/28 14:26:14;;;;;;;6.50;1.40;;;;;;;;;;4329193;33;20107;-85
2021/05/28 14:28:45;;;;;;;5.30;1.30;;;;;;;;;;4332433;33;20060;-85
2021/05/28 14:31:17;;;;;;;7.95;1.70;;;;;;;;;;4331405;33;20048;-85
2021/05/28 14:33:57;;;;;;;5.90;1.48;;;;;;;;;;4337350;33;20411;-85
2021/05/28 14:36:32;;;;;;;7.07;1.52;;;;;;;;;;4330094;33;20044;-85
2021/05/28 14:39:07;;;;;;;34.00;4.03;;;;;;;;;;4335914;33;20044;-85
2021/05/28 14:41:37;;;;;;;;;;;;;;;;;;4329738;33;20221;-84
2021/05/28 14:44:10;;;;;;;6.95;1.45;;;;;;;;;;4338411;33;19970;-85
2021/05/28 14:46:43;;;;;;;6.87;1.45;;;;;;;;;;4330556;33;20625;-84
2021/05/28 14:49:12;;;;;;;7.70;1.73;;;;;;;;;;4330986;33;20068;-85
2021/05/28 14:51:43;;;;;;;7.07;1.70;;;;;;;;;;4327507;33;20140;-85
2021/05/28 14:54:14;;;;;;;14.68;2.12;;;;;;;;;;4325950;33;20064;-85
2021/05/28 14:56:45;;;;;;;7.18;1.58;;;;;;;;;;4321919;33;20572;-85
2021/05/28 14:59:16;;;;;;;9.48;1.90;;;;;;;;;;4330859;33;20060;-85
2021/05/28 15:01:49;;;;;;;6.55;1.52;;;;;;;;;;4328198;33;20060;-86
2021/05/28 15:04:20;;;;;;;5.07;1.48;;;;;;;;;;4333173;33;20086;-86
2021/05/28 15:06:52;;;;;;;18.95;2.97;;;;;;;;;;4327986;33;20151;-85
2021/05/28 15:09:23;;;;;;;10.63;1.52;;;;;;;;;;4331746;33;20126;-85
2021/05/28 15:11:54;;;;;;;5.60;1.42;;;;;;;;;;4332249;33;20114;-85
2021/05/28 15:14:25;;;;;;;8.93;1.35;;;;;;;;;;4329778;33;20422;-85
2021/05/28 15:16:58;;;;;;;9.52;1.70;;;;;;;;;;4323341;33;20435;-85
2021/05/28 15:19:29;;;;;;;11.75;2.08;;;;;;;;;;4329813;33;20052;-85
2021/05/28 15:22:00;;;;;;;32.80;3.08;;;;;;;;;;4329408;33;20055;-85
2021/05/28 15:24:31;;;;;;;7.50;1.77;;;;;;;;;;4328047;33;20130;-84
2021/05/28 15:27:01;;;;;;;4.97;1.00;;;;;;;;;;4335598;33;20114;-85
2021/05/28 15:29:33;;;;;;;6.10;1.55;;;;;;;;;;4336466;32;20536;-85
2021/05/28 15:32:05;;;;;;;66.25;5.97;;;;;;;;;;4340688;33;20060;-85
2021/05/28 15:34:37;;;;;;;5.90;1.10;;;;;;;;;;4331434;33;20795;-84
2021/05/28 15:37:08;;;;;;;7.15;1.58;;;;;;;;;;4321695;33;20490;-84
2021/05/28 15:39:39;;;;;;;5.32;1.42;;;;;;;;;;4328722;33;20064;-85
2021/05/28 15:42:11;;;;;;;6.32;1.25;;;;;;;;;;4332455;33;20099;-85
2021/05/28 15:44:42;;;;;;;9.57;1.58;;;;;;;;;;4317513;33;20056;-85
2021/05/28 15:47:13;;;;;;;7.72;1.58;;;;;;;;;;4326153;33;20078;-84
2021/05/28 15:49:44;;;;;;;12.52;1.70;;;;;;;;;;4329066;33;20103;-85
2021/05/28 15:52:15;;;;;;;9.88;1.90;;;;;;;;;;4329060;33;20098;-84
2021/05/28 15:54:47;;;;;;;8.10;1.67;;;;;;;;;;4342266;33;20089;-85
2021/05/28 15:57:17;;;;;;;6.05;1.33;;;;;;;;;;4325828;33;20083;-84
2021/05/28 15:59:48;;;;;;;9.52;1.50;;;;;;;;;;4324218;33;20103;-86
2021/05/28 16:02:19;;;;;;;9.02;1.52;;;;;;;;;;4325317;33;20048;-84
2021/05/28 16:04:54;;;;;;;7.70;1.73;;;;;;;;;;4335229;33;20090;-85
2021/05/28 16:07:24;;;;;;;6.00;1.48;;;;;;;;;;4328809;33;20112;-84
2021/05/28 16:09:56;;;;;;;6.28;1.50;;;;;;;;;;4325413;33;20087;-85
2021/05/28 16:12:27;;;;;;;9.10;1.85;;;;;;;;;;4324146;33;20142;-85
2021/05/28 16:14:59;;;;;;;4.97;1.20;;;;;;;;;;4333145;33;20074;-84
2021/05/28 16:17:30;;;;;;;7.78;1.52;;;;;;;;;;4333658;33;20083;-85
2021/05/28 16:20:02;;;;;;;7.90;1.58;;;;;;;;;;4323992;33;20084;-84
2021/05/28 16:22:34;;;;;;;6.90;1.33;;;;;;;;;;4325332;33;20045;-85
2021/05/28 16:25:26;;;;;;;10.32;1.92;;;;;;;;;;4325966;33;20493;-85
2021/05/28 16:27:59;;;;;;;8.25;1.55;;;;;;;;;;4328940;32;20065;-84
2021/05/28 16:30:35;;;;;;;8.48;1.55;;;;;;;;;;4327524;33;20048;-84
2021/05/28 16:33:06;;;;;;;9.68;1.50;;;;;;;;;;4333407;33;20064;-85
2021/05/28 16:35:38;;;;;;;38.90;3.28;;;;;;;;;;4331610;32;20053;-85
2021/05/28 16:38:10;;;;;;;6.50;1.73;;;;;;;;;;4328057;33;20789;-85
2021/05/28 16:40:42;;;;;;;20.60;2.33;;;;;;;;;;4325754;33;20083;-84
2021/05/28 16:43:12;;;;;;;6.85;1.27;;;;;;;;;;4323579;33;20057;-84
2021/05/28 16:45:44;;;;;;;10.32;1.35;;;;;;;;;;4325681;33;20608;-84
2021/05/28 16:48:15;;;;;;;5.15;1.35;;;;;;;;;;4314692;33;20041;-84